Ana Sayfa
METAR-TAF:

METAR-TAF

Havaalanları :

Launceston, Avustralya

Enlem: 41-32S, Boylam: 147-12E, yükseklik: 171 m

Güncel hava durumu gözlemi

Rapor saat 22:00 UTC de 48 dakika önce yapıldı.
Rüzgar güney/güneydoğudan 8 kt
Sıcaklık 3°C
Nem 81%
Basınç 1017 hPa
Görüş mesafesi 10 km veya daha fazla

METAR: YMLT 052200Z AUTO 15008KT 9999 // NCD 03/00 Q1017 RF00.0/008.2

Saat: 08:48 (22:48 UTC)

Tahmin

Rapor saat 16:31 UTC de 6 saat ve 17 dakika önce yapıldı.
Ayın 05'si saat 18 UTC'den ayın 06'si saat 18 UTC'ye kadar geçerli Tahmin
Rüzgar güney/güneydoğudan 8 kt
Görüş mesafesi 10 km veya daha fazla
3000 ft yükseklikte az bulutlu

TAF: YMLT 051631Z 0518/0618 16008KT 9999 FEW030

4.000'den fazla havaalanı için hava durumu gözlemleri ve tahminleri (METAR ve TAF raporları).

Kullanılabilir istasyonlar harita üzerinde sarı ve kırmızı noktalarla gösterilir.

İstasyonun adını görmek için fareyi noktanın üzerinde gezdirin.

Sonrasında hava gözlem ve tahminlerini görmek için tıklayın.

Haritayı değiştirmek için: yaklaştırmak için siyah artı işaretli yeşil düğmeye ve uzaklaştırmak için de eksi işaretli düğmeye hızla tıklayın; bitişik haritalar için yeşil okları kullanın.


METAR-TAF: